Terminal Aerodrome Forecast
Issued by NWS

Home | Current Version | Previous Version | Text Only | Print | Product List | Glossary On
Versions: 1 2 3 4 5 6 7 8 9 10 11 12 13
000
FTUS41 KAKQ 212300
TAFPHF
TAF
KPHF 212339Z 2200/2224 25006KT P6SM SCT050 BKN100
     FM220300 32004KT P6SM BKN050
      TEMPO 2203/2205 32010G18KT -RA
     FM220900 32007KT 5SM -RA BR BKN015
     FM221500 32010G15KT P6SM BKN020
     FM221900 34014G23KT P6SM BKN040=

USA.gov is the U.S. government's official web portal to all federal, state and local government web resources and services.